createdAt,value
2023-03-29T00:00:50.970Z,414.00
2023-03-29T00:01:51.006Z,414.00
2023-03-29T00:02:51.157Z,414.00
2023-03-29T00:03:51.171Z,414.00
2023-03-29T00:04:51.167Z,413.00
2023-03-29T00:05:51.204Z,415.00
2023-03-29T00:06:51.269Z,417.00
2023-03-29T00:07:51.305Z,416.00
2023-03-29T00:08:51.376Z,413.00
2023-03-29T00:09:51.433Z,414.00
2023-03-29T00:10:51.495Z,416.00
2023-03-29T00:11:51.539Z,416.00
2023-03-29T00:12:51.588Z,416.00
2023-03-29T00:13:51.623Z,411.00
2023-03-29T00:14:51.679Z,411.00
2023-03-29T00:15:51.774Z,413.00
2023-03-29T00:16:51.825Z,412.00
2023-03-29T00:17:51.865Z,414.00
2023-03-29T00:18:51.940Z,411.00
2023-03-29T00:19:51.990Z,410.00
2023-03-29T00:20:52.049Z,410.00
2023-03-29T00:21:52.076Z,412.00
2023-03-29T00:22:52.136Z,411.00
2023-03-29T00:23:52.213Z,408.00
2023-03-29T00:24:52.266Z,409.00
2023-03-29T00:25:52.357Z,409.00
2023-03-29T00:26:52.390Z,410.00
2023-03-29T00:27:52.452Z,410.00
2023-03-29T00:28:52.545Z,410.00
2023-03-29T00:29:52.578Z,409.00
2023-03-29T00:30:52.683Z,407.00
2023-03-29T00:31:52.836Z,404.00
2023-03-29T00:32:52.767Z,404.00
2023-03-29T00:33:52.788Z,403.00
2023-03-29T00:34:52.862Z,402.00
2023-03-29T00:35:52.925Z,403.00
2023-03-29T00:36:53.011Z,403.00
2023-03-29T00:37:53.068Z,400.00
2023-03-29T00:38:53.064Z,401.00
2023-03-29T00:39:53.126Z,403.00
2023-03-29T00:40:53.197Z,408.00
2023-03-29T00:41:53.266Z,409.00
2023-03-29T00:42:53.301Z,408.00
2023-03-29T00:43:53.362Z,407.00
2023-03-29T00:44:53.412Z,408.00
2023-03-29T00:45:53.600Z,406.00
2023-03-29T00:46:53.584Z,410.00
2023-03-29T00:47:53.626Z,414.00
2023-03-29T00:48:53.653Z,414.00
2023-03-29T00:49:53.722Z,412.00
2023-03-29T00:50:53.760Z,412.00
2023-03-29T00:51:53.838Z,411.00
2023-03-29T00:52:53.889Z,412.00
2023-03-29T00:53:53.947Z,411.00
2023-03-29T00:54:54.013Z,412.00
2023-03-29T00:55:54.078Z,413.00
2023-03-29T00:56:54.150Z,415.00
2023-03-29T00:57:54.180Z,413.00
2023-03-29T00:58:54.240Z,412.00
2023-03-29T00:59:54.293Z,414.00
2023-03-29T01:00:54.334Z,414.00
2023-03-29T01:01:54.797Z,414.00
2023-03-29T01:02:54.615Z,416.00
2023-03-29T01:03:54.726Z,416.00
2023-03-29T01:04:54.615Z,417.00
2023-03-29T01:05:54.634Z,415.00
2023-03-29T01:06:54.733Z,412.00
2023-03-29T01:07:54.737Z,410.00
2023-03-29T01:08:54.801Z,408.00
2023-03-29T01:09:54.874Z,411.00
2023-03-29T01:10:54.917Z,414.00
2023-03-29T01:11:54.967Z,414.00
2023-03-29T01:12:55.046Z,413.00
2023-03-29T01:13:55.093Z,412.00
2023-03-29T01:14:55.171Z,411.00
2023-03-29T01:15:55.260Z,413.00
2023-03-29T01:16:55.367Z,415.00
2023-03-29T01:17:55.450Z,413.00
2023-03-29T01:18:55.418Z,411.00
2023-03-29T01:19:55.467Z,413.00
2023-03-29T01:20:55.546Z,413.00
2023-03-29T01:21:55.608Z,414.00
2023-03-29T01:22:55.676Z,413.00
2023-03-29T01:23:55.734Z,412.00
2023-03-29T01:24:55.797Z,414.00
2023-03-29T01:25:55.855Z,413.00
2023-03-29T01:26:55.923Z,414.00
2023-03-29T01:27:55.980Z,415.00
2023-03-29T01:28:56.064Z,410.00
2023-03-29T01:29:56.113Z,409.00
2023-03-29T01:30:56.188Z,407.00
2023-03-29T01:31:56.278Z,407.00
2023-03-29T01:32:56.371Z,408.00
2023-03-29T01:33:56.345Z,409.00
2023-03-29T01:34:56.411Z,407.00
2023-03-29T01:35:56.515Z,407.00
2023-03-29T01:36:56.567Z,409.00
2023-03-29T01:37:56.611Z,411.00
2023-03-29T01:38:56.697Z,411.00
2023-03-29T01:39:56.740Z,409.00
2023-03-29T01:40:56.795Z,409.00
2023-03-29T01:41:56.845Z,409.00
2023-03-29T01:42:56.942Z,406.00
2023-03-29T01:43:57.001Z,404.00
2023-03-29T01:44:57.065Z,405.00
2023-03-29T01:45:57.127Z,404.00
2023-03-29T01:46:57.174Z,403.00
2023-03-29T01:47:57.263Z,405.00
2023-03-29T01:48:57.324Z,408.00
2023-03-29T01:49:57.374Z,409.00
2023-03-29T01:50:57.441Z,409.00
2023-03-29T01:51:57.499Z,408.00
2023-03-29T01:52:57.739Z,406.00
2023-03-29T01:53:57.625Z,406.00
2023-03-29T01:54:57.700Z,405.00
2023-03-29T01:55:57.758Z,406.00
2023-03-29T01:56:57.842Z,405.00
2023-03-29T01:57:57.886Z,408.00
2023-03-29T01:58:57.936Z,406.00
2023-03-29T01:59:58.019Z,410.00
2023-03-29T02:00:58.136Z,410.00
2023-03-29T02:01:58.202Z,408.00
2023-03-29T02:02:58.315Z,410.00
2023-03-29T02:03:58.275Z,411.00
2023-03-29T02:04:58.311Z,411.00
2023-03-29T02:05:58.374Z,412.00
2023-03-29T02:06:58.457Z,409.00
2023-03-29T02:07:58.524Z,407.00
2023-03-29T02:08:58.602Z,406.00
2023-03-29T02:09:58.648Z,404.00
2023-03-29T02:10:58.702Z,404.00
2023-03-29T02:11:58.753Z,406.00
2023-03-29T02:12:58.869Z,405.00
2023-03-29T02:13:58.895Z,407.00
2023-03-29T02:14:58.952Z,410.00
2023-03-29T02:15:59.114Z,411.00
2023-03-29T02:16:59.098Z,411.00
2023-03-29T02:17:59.160Z,409.00
2023-03-29T02:18:59.201Z,409.00
2023-03-29T02:19:59.279Z,407.00
2023-03-29T02:20:59.638Z,409.00
2023-03-29T02:21:59.398Z,407.00
2023-03-29T02:22:59.465Z,408.00
2023-03-29T02:23:59.521Z,407.00
2023-03-29T02:24:59.580Z,406.00
2023-03-29T02:25:59.653Z,408.00
2023-03-29T02:26:59.715Z,407.00
2023-03-29T02:27:59.760Z,407.00
2023-03-29T02:28:59.829Z,407.00
2023-03-29T02:29:59.911Z,403.00
2023-03-29T02:31:00.226Z,402.00
2023-03-29T02:32:00.037Z,403.00
2023-03-29T02:33:00.238Z,403.00
2023-03-29T02:34:00.153Z,399.00
2023-03-29T02:35:00.234Z,402.00
2023-03-29T02:36:00.308Z,407.00
2023-03-29T02:37:00.350Z,408.00
2023-03-29T02:38:00.410Z,411.00
2023-03-29T02:39:00.471Z,411.00
2023-03-29T02:40:00.526Z,411.00
2023-03-29T02:41:00.768Z,410.00
2023-03-29T02:42:00.677Z,408.00
2023-03-29T02:43:00.726Z,411.00
2023-03-29T02:44:00.785Z,409.00
2023-03-29T02:45:00.854Z,410.00
2023-03-29T02:46:00.901Z,406.00
2023-03-29T02:47:01.005Z,402.00
2023-03-29T02:48:01.096Z,402.00
2023-03-29T02:49:01.120Z,399.00
2023-03-29T02:50:01.183Z,405.00
2023-03-29T02:51:01.488Z,406.00
2023-03-29T02:52:01.300Z,407.00
2023-03-29T02:53:01.378Z,404.00
2023-03-29T02:54:01.422Z,404.00
2023-03-29T02:55:01.477Z,407.00
2023-03-29T02:56:01.536Z,406.00
2023-03-29T02:57:01.619Z,407.00
2023-03-29T02:58:01.685Z,408.00
2023-03-29T02:59:01.731Z,407.00
2023-03-29T03:00:01.789Z,406.00
2023-03-29T03:01:02.025Z,407.00
2023-03-29T03:02:02.028Z,406.00
2023-03-29T03:03:02.194Z,408.00
2023-03-29T03:04:02.096Z,406.00
2023-03-29T03:05:02.116Z,405.00
2023-03-29T03:06:02.166Z,407.00
2023-03-29T03:07:02.245Z,408.00
2023-03-29T03:08:02.311Z,410.00
2023-03-29T03:09:02.399Z,409.00
2023-03-29T03:10:02.454Z,409.00
2023-03-29T03:11:02.782Z,407.00
2023-03-29T03:12:02.575Z,406.00
2023-03-29T03:13:02.650Z,406.00
2023-03-29T03:14:02.698Z,407.00
2023-03-29T03:15:02.775Z,408.00
2023-03-29T03:16:02.881Z,409.00
2023-03-29T03:17:04.684Z,410.00
2023-03-29T03:18:02.999Z,411.00
2023-03-29T03:19:03.010Z,410.00
2023-03-29T03:20:03.082Z,409.00
2023-03-29T03:21:03.239Z,406.00
2023-03-29T03:22:03.227Z,406.00
2023-03-29T03:23:03.277Z,404.00
2023-03-29T03:24:03.325Z,405.00
2023-03-29T03:25:03.391Z,407.00
2023-03-29T03:26:03.440Z,410.00
2023-03-29T03:27:03.538Z,410.00
2023-03-29T03:28:03.572Z,409.00
2023-03-29T03:29:03.657Z,409.00
2023-03-29T03:30:03.725Z,407.00
2023-03-29T03:31:03.889Z,411.00
2023-03-29T03:32:03.965Z,412.00
2023-03-29T03:33:03.943Z,412.00
2023-03-29T03:34:03.975Z,412.00
2023-03-29T03:35:04.018Z,414.00
2023-03-29T03:36:04.125Z,412.00
2023-03-29T03:37:04.172Z,409.00
2023-03-29T03:38:04.256Z,409.00
2023-03-29T03:39:04.277Z,408.00
2023-03-29T03:40:04.352Z,407.00
2023-03-29T03:41:04.834Z,406.00
2023-03-29T03:42:07.239Z,406.00
2023-03-29T03:43:04.495Z,406.00
2023-03-29T03:44:04.493Z,403.00
2023-03-29T03:45:04.466Z,403.00
2023-03-29T03:46:04.492Z,402.00
2023-03-29T03:47:04.446Z,407.00
2023-03-29T03:48:04.446Z,410.00
2023-03-29T03:49:04.433Z,411.00
2023-03-29T03:50:04.422Z,409.00
2023-03-29T03:51:04.657Z,408.00
2023-03-29T03:52:04.440Z,408.00
2023-03-29T03:53:04.393Z,407.00
2023-03-29T03:54:04.383Z,409.00
2023-03-29T03:55:04.400Z,408.00
2023-03-29T03:56:04.385Z,407.00
2023-03-29T03:57:04.478Z,407.00
2023-03-29T03:58:04.376Z,407.00
2023-03-29T03:59:04.365Z,409.00
2023-03-29T04:00:04.356Z,409.00
2023-03-29T04:01:04.381Z,411.00
2023-03-29T04:02:04.406Z,411.00
2023-03-29T04:03:04.506Z,410.00
2023-03-29T04:04:04.431Z,407.00
2023-03-29T04:05:04.347Z,409.00
2023-03-29T04:06:04.336Z,408.00
2023-03-29T04:07:04.391Z,406.00
2023-03-29T04:08:04.441Z,406.00
2023-03-29T04:09:04.524Z,409.00
2023-03-29T04:10:04.646Z,411.00
2023-03-29T04:11:04.774Z,411.00
2023-03-29T04:12:04.721Z,411.00
2023-03-29T04:13:04.789Z,411.00
2023-03-29T04:14:04.840Z,411.00
2023-03-29T04:15:04.913Z,410.00
2023-03-29T04:16:05.063Z,409.00
2023-03-29T04:17:05.048Z,409.00
2023-03-29T04:18:05.270Z,408.00
2023-03-29T04:19:05.168Z,406.00
2023-03-29T04:20:05.223Z,405.00
2023-03-29T04:21:05.292Z,404.00
2023-03-29T04:22:05.351Z,404.00
2023-03-29T04:23:05.405Z,409.00
2023-03-29T04:24:05.476Z,407.00
2023-03-29T04:25:05.550Z,408.00
2023-03-29T04:26:05.595Z,406.00
2023-03-29T04:27:05.677Z,408.00
2023-03-29T04:28:05.733Z,407.00
2023-03-29T04:29:05.833Z,409.00
2023-03-29T04:30:05.859Z,408.00
2023-03-29T04:31:06.059Z,407.00
2023-03-29T04:32:05.994Z,407.00
2023-03-29T04:33:06.091Z,408.00
2023-03-29T04:34:06.114Z,409.00
2023-03-29T04:35:06.165Z,411.00
2023-03-29T04:36:06.266Z,410.00
2023-03-29T04:37:06.301Z,409.00
2023-03-29T04:38:06.374Z,409.00
2023-03-29T04:39:06.453Z,411.00
2023-03-29T04:40:06.516Z,411.00
2023-03-29T04:41:06.550Z,410.00
2023-03-29T04:42:06.616Z,410.00
2023-03-29T04:43:06.670Z,408.00
2023-03-29T04:44:06.800Z,408.00
2023-03-29T04:45:06.947Z,408.00
2023-03-29T04:46:06.967Z,407.00
2023-03-29T04:47:06.940Z,406.00
2023-03-29T04:48:07.056Z,407.00
2023-03-29T04:49:07.044Z,408.00
2023-03-29T04:50:07.127Z,411.00
2023-03-29T04:51:07.190Z,409.00
2023-03-29T04:52:07.251Z,411.00
2023-03-29T04:53:07.309Z,412.00
2023-03-29T04:54:07.391Z,412.00
2023-03-29T04:55:07.422Z,415.00
2023-03-29T04:56:07.500Z,417.00
2023-03-29T04:57:07.601Z,417.00
2023-03-29T04:58:07.616Z,417.00
2023-03-29T04:59:07.706Z,418.00
2023-03-29T05:00:07.753Z,416.00
2023-03-29T05:01:07.821Z,415.00
2023-03-29T05:02:07.978Z,414.00
2023-03-29T05:03:08.047Z,410.00
2023-03-29T05:04:08.560Z,409.00
2023-03-29T05:05:08.110Z,410.00
2023-03-29T05:06:08.174Z,409.00
2023-03-29T05:07:08.234Z,408.00
2023-03-29T05:08:08.290Z,407.00
2023-03-29T05:09:08.363Z,406.00
2023-03-29T05:10:08.435Z,409.00
2023-03-29T05:11:08.489Z,410.00
2023-03-29T05:12:08.557Z,410.00
2023-03-29T05:13:08.602Z,410.00
2023-03-29T05:14:08.681Z,406.00
2023-03-29T05:15:08.751Z,405.00
2023-03-29T05:16:08.858Z,405.00
2023-03-29T05:17:08.877Z,407.00
2023-03-29T05:18:08.995Z,408.00
2023-03-29T05:19:09.007Z,407.00
2023-03-29T05:20:09.065Z,407.00
2023-03-29T05:21:09.146Z,407.00
2023-03-29T05:22:09.198Z,407.00
2023-03-29T05:23:09.249Z,409.00
2023-03-29T05:24:09.325Z,409.00
2023-03-29T05:25:09.377Z,410.00
2023-03-29T05:26:09.439Z,408.00
2023-03-29T05:27:09.498Z,405.00
2023-03-29T05:28:09.577Z,405.00
2023-03-29T05:29:09.641Z,408.00
2023-03-29T05:30:09.854Z,459.00
2023-03-29T05:31:09.850Z,462.00
2023-03-29T05:32:09.855Z,465.00
2023-03-29T05:33:09.909Z,468.00
2023-03-29T05:34:09.938Z,475.00
2023-03-29T05:35:10.370Z,482.00
2023-03-29T05:36:10.075Z,495.00
2023-03-29T05:37:10.087Z,507.00
2023-03-29T05:38:10.132Z,534.00
2023-03-29T05:39:10.189Z,585.00
2023-03-29T05:40:10.495Z,597.00
2023-03-29T05:41:10.274Z,615.00
2023-03-29T05:42:10.305Z,679.00
2023-03-29T05:43:10.342Z,691.00
2023-03-29T05:44:10.365Z,717.00
2023-03-29T05:45:10.424Z,771.00
2023-03-29T05:46:10.498Z,798.00
2023-03-29T05:47:10.455Z,812.00
2023-03-29T05:48:10.527Z,827.00
2023-03-29T05:49:10.523Z,864.00
2023-03-29T05:50:10.595Z,882.00
2023-03-29T05:51:10.548Z,890.00
2023-03-29T05:52:10.585Z,901.00
2023-03-29T05:53:10.572Z,948.00
2023-03-29T05:54:10.596Z,958.00
2023-03-29T05:55:10.618Z,966.00
2023-03-29T05:56:10.612Z,974.00
2023-03-29T05:57:10.689Z,977.00
2023-03-29T05:58:10.647Z,980.00
2023-03-29T05:59:10.622Z,983.00
2023-03-29T06:00:10.629Z,987.00
2023-03-29T06:01:10.644Z,993.00
2023-03-29T06:02:10.790Z,1041.00
2023-03-29T06:03:18.052Z,1063.00
2023-03-29T06:04:11.717Z,1059.00
2023-03-29T06:05:10.677Z,1063.00
2023-03-29T06:06:10.621Z,1064.00
2023-03-29T06:07:10.621Z,1069.00
2023-03-29T06:08:10.620Z,1078.00
2023-03-29T06:09:10.604Z,1100.00
2023-03-29T06:10:10.595Z,1102.00
2023-03-29T06:11:10.696Z,1110.00
2023-03-29T06:12:10.573Z,1118.00
2023-03-29T06:13:10.591Z,1121.00
2023-03-29T06:14:10.582Z,1125.00
2023-03-29T06:15:10.557Z,1115.00
2023-03-29T06:16:10.565Z,1120.00
2023-03-29T06:17:10.670Z,1135.00
2023-03-29T06:18:10.594Z,1144.00
2023-03-29T06:19:10.524Z,1159.00
2023-03-29T06:20:10.520Z,1210.00
2023-03-29T06:21:10.532Z,1214.00
2023-03-29T06:22:11.344Z,1215.00
2023-03-29T06:23:10.530Z,1216.00
2023-03-29T06:24:10.527Z,1215.00
2023-03-29T06:25:10.485Z,1208.00
2023-03-29T06:26:10.501Z,1202.00
2023-03-29T06:27:10.495Z,1209.00
2023-03-29T06:28:10.480Z,1142.00
2023-03-29T06:29:10.462Z,1181.00
2023-03-29T06:30:10.463Z,1194.00
2023-03-29T06:31:10.544Z,1207.00
2023-03-29T06:32:10.888Z,1216.00
2023-03-29T06:33:10.640Z,1202.00
2023-03-29T06:34:10.536Z,1205.00
2023-03-29T06:35:10.560Z,1216.00
2023-03-29T06:36:10.601Z,1224.00
2023-03-29T06:37:10.637Z,1225.00
2023-03-29T06:38:10.685Z,1235.00
2023-03-29T06:39:10.736Z,1280.00
2023-03-29T06:40:10.769Z,1284.00
2023-03-29T06:41:10.831Z,1336.00
2023-03-29T06:42:20.765Z,1370.00
2023-03-29T06:43:11.881Z,1370.00
2023-03-29T06:44:10.867Z,1380.00
2023-03-29T06:45:10.861Z,1388.00
2023-03-29T06:46:10.941Z,1335.00
2023-03-29T06:47:10.900Z,1266.00
2023-03-29T06:48:11.428Z,1281.00
2023-03-29T06:49:10.832Z,1286.00
2023-03-29T06:50:10.806Z,1286.00
2023-03-29T06:51:10.855Z,1255.00
2023-03-29T06:52:11.432Z,1253.00
2023-03-29T06:53:10.941Z,1265.00
2023-03-29T06:54:10.963Z,1265.00
2023-03-29T06:55:11.021Z,1296.00
2023-03-29T06:56:11.043Z,1298.00
2023-03-29T06:57:11.441Z,1257.00
2023-03-29T06:58:11.406Z,1262.00
2023-03-29T06:59:11.169Z,1301.00
2023-03-29T07:00:11.207Z,1257.00
2023-03-29T07:01:11.224Z,1294.00
2023-03-29T07:02:11.327Z,1314.00
2023-03-29T07:03:11.462Z,1298.00
2023-03-29T07:04:11.395Z,1239.00
2023-03-29T07:05:11.436Z,1222.00
2023-03-29T07:06:11.446Z,1209.00
2023-03-29T07:07:11.506Z,1223.00
2023-03-29T07:08:11.888Z,1246.00
2023-03-29T07:09:11.734Z,1247.00
2023-03-29T07:10:11.691Z,1271.00
2023-03-29T07:11:11.774Z,1322.00
2023-03-29T07:12:11.833Z,1317.00
2023-03-29T07:13:11.896Z,1312.00
2023-03-29T07:14:11.999Z,1304.00
2023-03-29T07:15:12.010Z,1249.00
2023-03-29T07:16:12.124Z,1179.00
2023-03-29T07:17:12.130Z,1146.00
2023-03-29T07:18:12.191Z,1212.00
2023-03-29T07:19:12.266Z,1230.00
2023-03-29T07:20:12.331Z,1228.00
2023-03-29T07:21:12.410Z,1232.00
2023-03-29T07:22:12.460Z,1233.00
2023-03-29T07:23:12.509Z,1174.00
2023-03-29T07:24:12.574Z,1183.00
2023-03-29T07:25:12.643Z,1154.00
2023-03-29T07:26:12.700Z,1168.00
2023-03-29T07:27:12.913Z,1098.00
2023-03-29T07:28:12.911Z,1162.00
2023-03-29T07:29:12.869Z,1147.00
2023-03-29T07:30:12.908Z,1153.00
2023-03-29T07:31:12.950Z,1162.00
2023-03-29T07:32:13.030Z,1175.00
2023-03-29T07:33:13.559Z,1220.00
2023-03-29T07:34:13.133Z,1215.00
2023-03-29T07:35:13.226Z,1222.00
2023-03-29T07:36:13.322Z,1226.00
2023-03-29T07:37:13.434Z,1230.00
2023-03-29T07:38:13.386Z,1228.00
2023-03-29T07:39:13.449Z,1229.00
2023-03-29T07:40:13.514Z,1230.00
2023-03-29T07:41:13.510Z,1231.00
2023-03-29T07:42:13.562Z,1229.00
2023-03-29T07:43:13.644Z,1227.00
2023-03-29T07:44:13.708Z,1216.00
2023-03-29T07:45:13.747Z,1221.00
2023-03-29T07:46:13.796Z,1233.00
2023-03-29T07:47:13.806Z,1246.00
2023-03-29T07:48:13.900Z,1258.00
2023-03-29T07:49:13.894Z,1243.00
2023-03-29T07:50:14.413Z,1240.00
2023-03-29T07:51:13.989Z,1236.00
2023-03-29T07:52:14.126Z,1235.00
2023-03-29T07:53:14.059Z,1242.00
2023-03-29T07:54:14.114Z,1254.00
2023-03-29T07:55:14.397Z,1260.00
2023-03-29T07:56:14.187Z,1254.00
2023-03-29T07:57:14.282Z,1251.00
2023-03-29T07:58:14.275Z,1256.00
2023-03-29T07:59:14.312Z,1254.00
2023-03-29T08:00:14.411Z,1261.00
2023-03-29T08:01:17.171Z,1268.00
2023-03-29T08:02:14.373Z,1272.00
2023-03-29T08:03:14.434Z,1285.00
2023-03-29T08:04:14.466Z,1291.00
2023-03-29T08:05:14.452Z,1291.00
2023-03-29T08:06:14.367Z,1290.00
2023-03-29T08:07:15.758Z,1290.00
2023-03-29T08:08:14.573Z,1296.00
2023-03-29T08:09:14.582Z,1303.00
2023-03-29T08:10:14.653Z,1314.00
2023-03-29T08:11:14.654Z,1311.00
2023-03-29T08:12:14.707Z,1307.00
2023-03-29T08:13:14.733Z,1298.00
2023-03-29T08:14:14.771Z,1292.00
2023-03-29T08:15:14.962Z,1281.00
2023-03-29T08:16:14.883Z,1273.00
2023-03-29T08:17:14.875Z,1276.00
2023-03-29T08:18:14.986Z,1278.00
2023-03-29T08:19:14.985Z,1259.00
2023-03-29T08:20:15.471Z,1214.00
2023-03-29T08:21:15.038Z,1010.00
2023-03-29T08:22:15.106Z,1099.00
2023-03-29T08:23:15.146Z,1117.00
2023-03-29T08:24:15.225Z,1164.00
2023-03-29T08:25:15.420Z,1171.00
2023-03-29T08:26:15.280Z,1167.00
2023-03-29T08:27:15.342Z,1181.00
2023-03-29T08:28:15.420Z,1187.00
2023-03-29T08:29:15.439Z,1184.00
2023-03-29T08:30:15.500Z,1183.00
2023-03-29T08:31:15.551Z,1207.00
2023-03-29T08:32:15.543Z,1217.00
2023-03-29T08:33:15.657Z,793.00
2023-03-29T08:34:15.596Z,733.00
2023-03-29T08:35:15.612Z,827.00
2023-03-29T08:36:15.684Z,817.00
2023-03-29T08:37:15.694Z,838.00
2023-03-29T08:38:15.940Z,838.00
2023-03-29T08:39:16.816Z,879.00
2023-03-29T08:40:15.745Z,899.00
2023-03-29T08:41:15.729Z,943.00
2023-03-29T08:42:15.733Z,989.00
2023-03-29T08:43:15.949Z,1020.00
2023-03-29T08:44:15.764Z,1037.00
2023-03-29T08:45:15.785Z,1047.00
2023-03-29T08:46:15.864Z,1048.00
2023-03-29T08:47:15.833Z,1046.00
2023-03-29T08:48:15.864Z,1028.00
2023-03-29T08:49:15.932Z,1009.00
2023-03-29T08:50:15.989Z,1008.00
2023-03-29T08:51:16.059Z,1011.00
2023-03-29T08:52:16.105Z,1008.00
2023-03-29T08:53:16.168Z,1019.00
2023-03-29T08:54:16.227Z,1087.00
2023-03-29T08:55:16.254Z,1098.00
2023-03-29T08:56:16.297Z,1095.00
2023-03-29T08:57:16.403Z,1089.00
2023-03-29T08:58:16.390Z,1098.00
2023-03-29T08:59:16.428Z,1113.00
2023-03-29T09:00:16.482Z,1128.00
2023-03-29T09:01:16.549Z,1167.00
2023-03-29T09:02:16.680Z,1174.00
2023-03-29T09:03:16.746Z,1169.00
2023-03-29T09:04:16.632Z,1166.00
2023-03-29T09:05:16.671Z,1166.00
2023-03-29T09:06:16.722Z,1166.00
2023-03-29T09:07:16.776Z,1168.00
2023-03-29T09:08:16.823Z,1154.00
2023-03-29T09:09:16.831Z,1128.00
2023-03-29T09:10:16.847Z,1124.00
2023-03-29T09:11:16.860Z,1146.00
2023-03-29T09:12:16.890Z,1151.00
2023-03-29T09:13:17.028Z,1159.00
2023-03-29T09:14:16.934Z,1156.00
2023-03-29T09:15:16.943Z,1143.00
2023-03-29T09:16:17.006Z,1125.00
2023-03-29T09:17:16.994Z,1133.00
2023-03-29T09:18:17.541Z,1146.00
2023-03-29T09:19:17.030Z,1164.00
2023-03-29T09:20:17.027Z,1171.00
2023-03-29T09:21:17.075Z,1171.00
2023-03-29T09:22:17.057Z,1159.00
2023-03-29T09:23:17.434Z,1166.00
2023-03-29T09:24:17.116Z,1182.00
2023-03-29T09:25:17.122Z,1186.00
2023-03-29T09:26:17.133Z,1176.00
2023-03-29T09:27:17.146Z,1178.00
2023-03-29T09:28:17.440Z,1183.00
2023-03-29T09:29:17.181Z,1185.00
2023-03-29T09:30:17.211Z,1178.00
2023-03-29T09:31:17.268Z,1184.00
2023-03-29T09:32:17.272Z,1194.00
2023-03-29T09:33:17.444Z,1194.00
2023-03-29T09:34:17.291Z,1194.00
2023-03-29T09:35:17.321Z,1186.00
2023-03-29T09:36:17.381Z,1178.00
2023-03-29T09:37:17.362Z,1174.00
2023-03-29T09:38:17.384Z,1168.00
2023-03-29T09:39:17.409Z,1158.00
2023-03-29T09:40:17.502Z,1168.00
2023-03-29T09:41:17.442Z,1160.00
2023-03-29T09:42:17.478Z,1162.00
2023-03-29T09:43:17.512Z,1145.00
2023-03-29T09:44:29.835Z,1141.00
2023-03-29T09:45:18.530Z,1129.00
2023-03-29T09:46:17.607Z,1127.00
2023-03-29T09:47:17.525Z,1132.00
2023-03-29T09:48:17.977Z,1132.00
2023-03-29T09:49:17.612Z,1116.00
2023-03-29T09:50:30.263Z,1111.00
2023-03-29T09:51:18.498Z,1103.00
2023-03-29T09:52:17.473Z,1097.00
2023-03-29T09:53:17.472Z,1090.00
2023-03-29T09:54:17.496Z,1081.00
2023-03-29T09:55:17.480Z,1070.00
2023-03-29T09:56:17.476Z,1052.00
2023-03-29T09:57:17.514Z,1023.00
2023-03-29T09:58:17.519Z,1013.00
2023-03-29T09:59:17.484Z,1006.00
2023-03-29T10:00:17.448Z,998.00
2023-03-29T10:01:17.530Z,996.00
2023-03-29T10:02:17.434Z,992.00
2023-03-29T10:03:17.414Z,989.00
2023-03-29T10:04:17.538Z,984.00
2023-03-29T10:05:17.454Z,976.00
2023-03-29T10:06:17.520Z,966.00
2023-03-29T10:07:17.528Z,958.00
2023-03-29T10:08:19.445Z,950.00
2023-03-29T10:09:17.981Z,943.00
2023-03-29T10:10:17.661Z,938.00
2023-03-29T10:11:17.695Z,931.00
2023-03-29T10:12:17.743Z,927.00
2023-03-29T10:13:17.776Z,920.00
2023-03-29T10:14:17.825Z,914.00
2023-03-29T10:15:29.186Z,911.00
2023-03-29T10:16:18.866Z,903.00
2023-03-29T10:17:17.851Z,895.00
2023-03-29T10:18:17.841Z,884.00
2023-03-29T10:19:17.962Z,879.00
2023-03-29T10:20:17.846Z,870.00
2023-03-29T10:21:17.836Z,838.00
2023-03-29T10:22:17.798Z,817.00
2023-03-29T10:23:17.807Z,817.00
2023-03-29T10:24:17.822Z,874.00
2023-03-29T10:25:17.806Z,775.00
2023-03-29T10:26:17.781Z,746.00
2023-03-29T10:27:17.789Z,698.00
2023-03-29T10:28:17.756Z,677.00
2023-03-29T10:29:17.764Z,670.00
2023-03-29T10:30:17.811Z,645.00
2023-03-29T10:31:17.988Z,616.00
2023-03-29T10:32:17.930Z,603.00
2023-03-29T10:33:17.911Z,605.00
2023-03-29T10:34:17.926Z,586.00
2023-03-29T10:35:17.950Z,555.00
2023-03-29T10:36:18.033Z,569.00
2023-03-29T10:37:18.034Z,569.00
2023-03-29T10:38:18.061Z,593.00
2023-03-29T10:39:18.085Z,607.00
2023-03-29T10:40:18.476Z,607.00
2023-03-29T10:41:18.091Z,604.00
2023-03-29T10:42:18.109Z,598.00
2023-03-29T10:43:18.155Z,617.00
2023-03-29T10:44:18.229Z,636.00
2023-03-29T10:45:18.288Z,632.00
2023-03-29T10:46:18.384Z,631.00
2023-03-29T10:47:18.358Z,630.00
2023-03-29T10:48:18.378Z,636.00
2023-03-29T10:49:18.409Z,694.00
2023-03-29T10:50:18.425Z,670.00
2023-03-29T10:51:18.451Z,701.00
2023-03-29T10:52:18.454Z,711.00
2023-03-29T10:53:18.469Z,757.00
2023-03-29T10:54:18.448Z,757.00
2023-03-29T10:55:18.473Z,681.00
2023-03-29T10:56:18.460Z,629.00
2023-03-29T10:57:19.434Z,643.00
2023-03-29T10:58:18.466Z,645.00
2023-03-29T10:59:18.459Z,643.00
2023-03-29T11:00:18.522Z,651.00
2023-03-29T11:01:18.496Z,668.00
2023-03-29T11:02:18.478Z,729.00
2023-03-29T11:03:20.970Z,755.00
2023-03-29T11:04:18.456Z,766.00
2023-03-29T11:05:18.453Z,775.00
2023-03-29T11:06:18.429Z,817.00
2023-03-29T11:07:18.423Z,822.00
2023-03-29T11:08:18.412Z,839.00
2023-03-29T11:09:18.411Z,837.00
2023-03-29T11:10:18.413Z,821.00
2023-03-29T11:11:18.406Z,812.00
2023-03-29T11:12:18.411Z,837.00
2023-03-29T11:13:18.407Z,858.00
2023-03-29T11:14:18.434Z,898.00
2023-03-29T11:15:18.494Z,860.00
2023-03-29T11:16:18.420Z,732.00
2023-03-29T11:17:18.363Z,835.00
2023-03-29T11:18:18.348Z,764.00
2023-03-29T11:19:18.359Z,822.00
2023-03-29T11:20:18.365Z,824.00
2023-03-29T11:21:18.333Z,835.00
2023-03-29T11:22:18.312Z,820.00
2023-03-29T11:23:18.330Z,733.00
2023-03-29T11:24:18.315Z,676.00
2023-03-29T11:25:18.369Z,676.00
2023-03-29T11:26:18.303Z,667.00
2023-03-29T11:27:18.293Z,658.00
2023-03-29T11:28:18.285Z,649.00
2023-03-29T11:29:18.267Z,617.00
2023-03-29T11:30:18.283Z,630.00
2023-03-29T11:31:18.354Z,626.00
2023-03-29T11:32:18.274Z,628.00
2023-03-29T11:33:18.251Z,622.00
2023-03-29T11:34:18.241Z,619.00
2023-03-29T11:35:18.249Z,629.00
2023-03-29T11:36:18.326Z,644.00
2023-03-29T11:37:18.234Z,648.00
2023-03-29T11:38:18.209Z,655.00
2023-03-29T11:39:18.201Z,661.00
2023-03-29T11:40:18.194Z,662.00
2023-03-29T11:41:18.197Z,666.00
2023-03-29T11:42:18.184Z,667.00
2023-03-29T11:43:18.182Z,667.00
2023-03-29T11:44:18.171Z,668.00
2023-03-29T11:45:18.173Z,667.00
2023-03-29T11:46:18.200Z,663.00
2023-03-29T11:47:18.155Z,657.00
2023-03-29T11:48:18.147Z,654.00
2023-03-29T11:49:18.139Z,648.00
2023-03-29T11:50:18.153Z,643.00
2023-03-29T11:51:18.116Z,640.00
2023-03-29T11:52:18.126Z,641.00
2023-03-29T11:53:18.109Z,639.00
2023-03-29T11:54:18.109Z,637.00
2023-03-29T11:55:18.101Z,634.00
2023-03-29T11:56:18.519Z,639.00
2023-03-29T11:57:18.519Z,634.00
2023-03-29T11:58:18.080Z,629.00
2023-03-29T11:59:18.056Z,624.00
2023-03-29T12:00:18.075Z,621.00
2023-03-29T12:01:18.126Z,620.00
2023-03-29T12:02:18.553Z,609.00
2023-03-29T12:03:18.631Z,615.00
2023-03-29T12:04:18.327Z,626.00
2023-03-29T12:05:18.361Z,629.00
2023-03-29T12:06:18.436Z,634.00
2023-03-29T12:07:18.503Z,687.00
2023-03-29T12:08:19.011Z,731.00
2023-03-29T12:09:18.622Z,771.00
2023-03-29T12:10:18.676Z,779.00
2023-03-29T12:11:18.712Z,785.00
2023-03-29T12:12:18.785Z,782.00
2023-03-29T12:13:19.009Z,780.00
2023-03-29T12:14:18.867Z,781.00
2023-03-29T12:15:18.910Z,793.00
2023-03-29T12:16:19.009Z,816.00
2023-03-29T12:17:19.028Z,829.00
2023-03-29T12:18:19.033Z,899.00
2023-03-29T12:19:19.076Z,923.00
2023-03-29T12:20:19.104Z,915.00
2023-03-29T12:21:19.136Z,924.00
2023-03-29T12:22:19.150Z,958.00